createdAt,value
2022-09-29T00:01:10.114Z,-143.83
2022-09-29T00:03:37.824Z,-143.83
2022-09-29T00:06:15.543Z,-143.83
2022-09-29T00:08:43.496Z,-143.83
2022-09-29T00:11:14.545Z,-143.83
2022-09-29T00:13:42.577Z,-143.83
2022-09-29T00:16:10.306Z,-143.83
2022-09-29T00:18:37.453Z,-143.83
2022-09-29T00:21:10.290Z,-143.83
2022-09-29T00:23:38.382Z,-143.83
2022-09-29T00:26:24.806Z,-143.83
2022-09-29T00:28:58.495Z,-143.83
2022-09-29T00:31:28.902Z,-143.83
2022-09-29T00:33:57.123Z,-143.83
2022-09-29T00:36:25.426Z,-143.83
2022-09-29T00:38:53.301Z,-143.83
2022-09-29T00:41:24.895Z,-143.83
2022-09-29T00:44:15.247Z,-143.83
2022-09-29T00:47:02.311Z,-143.83
2022-09-29T00:49:52.705Z,-143.83
2022-09-29T00:53:02.718Z,-143.83
2022-09-29T00:55:39.324Z,-143.83
2022-09-29T00:58:15.800Z,-143.83
2022-09-29T01:00:43.877Z,-143.83
2022-09-29T01:03:17.297Z,-143.83
2022-09-29T01:05:57.670Z,-143.83
2022-09-29T01:08:42.815Z,-143.83
2022-09-29T01:11:13.511Z,-143.83
2022-09-29T01:13:41.784Z,-143.83
2022-09-29T01:16:09.007Z,-143.83
2022-09-29T01:18:36.597Z,-143.83
2022-09-29T01:21:17.083Z,-143.83
2022-09-29T01:23:52.891Z,-143.83
2022-09-29T01:27:14.090Z,-143.83
2022-09-29T01:29:49.778Z,-143.83
2022-09-29T01:32:33.825Z,-143.83
2022-09-29T01:35:24.839Z,-143.83
2022-09-29T01:38:32.835Z,-143.83
2022-09-29T01:41:15.041Z,-143.83
2022-09-29T01:43:50.690Z,-143.83
2022-09-29T01:46:36.515Z,-143.83
2022-09-29T01:49:06.591Z,-143.83
2022-09-29T01:52:08.214Z,-143.83
2022-09-29T01:54:48.220Z,-143.83
2022-09-29T01:57:36.213Z,-143.83
2022-09-29T02:00:09.535Z,-143.83
2022-09-29T02:02:41.942Z,-143.83
2022-09-29T02:05:19.481Z,-143.83
2022-09-29T02:07:48.119Z,-143.83
2022-09-29T02:10:34.499Z,-143.83
2022-09-29T02:13:08.904Z,-143.83
2022-09-29T02:15:43.806Z,-143.83
2022-09-29T02:18:21.525Z,-143.83
2022-09-29T02:20:51.277Z,-143.83
2022-09-29T02:23:18.814Z,-143.83
2022-09-29T02:25:51.277Z,-143.83
2022-09-29T02:28:19.450Z,-143.83
2022-09-29T02:30:49.694Z,-143.83
2022-09-29T02:33:26.361Z,-143.83
2022-09-29T02:36:25.923Z,-143.83
2022-09-29T02:39:17.209Z,-143.83
2022-09-29T02:42:06.687Z,-143.83
2022-09-29T02:44:50.825Z,-143.83
2022-09-29T02:48:02.643Z,-143.83
2022-09-29T02:50:44.612Z,-143.83
2022-09-29T02:53:17.523Z,-143.83
2022-09-29T02:56:17.160Z,-143.83
2022-09-29T02:59:27.381Z,-143.83
2022-09-29T03:01:57.131Z,-143.83
2022-09-29T03:04:27.588Z,-143.83
2022-09-29T03:06:55.216Z,-143.83
2022-09-29T03:09:22.281Z,-143.83
2022-09-29T03:11:49.292Z,-143.83
2022-09-29T03:14:16.545Z,-143.83
2022-09-29T03:16:44.260Z,-143.83
2022-09-29T03:19:11.343Z,-143.83
2022-09-29T03:21:38.379Z,-143.83
2022-09-29T03:24:06.255Z,-143.83
2022-09-29T03:26:33.612Z,-143.83
2022-09-29T03:29:01.057Z,-143.83
2022-09-29T03:31:27.976Z,-143.83
2022-09-29T03:33:55.165Z,-143.83
2022-09-29T03:36:22.120Z,-143.83
2022-09-29T03:38:49.141Z,-143.83
2022-09-29T03:41:16.183Z,-143.83
2022-09-29T03:43:43.401Z,-143.83
2022-09-29T03:46:10.490Z,-143.83
2022-09-29T03:48:37.611Z,-143.83
2022-09-29T03:51:06.037Z,-143.83
2022-09-29T03:53:35.632Z,-143.83
2022-09-29T03:56:04.025Z,-143.83
2022-09-29T03:58:31.407Z,-143.83
2022-09-29T04:00:58.883Z,-143.83
2022-09-29T04:03:26.048Z,-143.83
2022-09-29T04:05:53.068Z,-143.83
2022-09-29T04:08:20.261Z,-143.83
2022-09-29T04:10:48.312Z,-143.83
2022-09-29T04:13:19.872Z,-143.83
2022-09-29T04:15:50.340Z,-143.83
2022-09-29T04:18:17.430Z,-143.83
2022-09-29T04:20:44.471Z,-143.83
2022-09-29T04:23:12.724Z,-143.83
2022-09-29T04:25:39.774Z,-143.83
2022-09-29T04:28:06.744Z,-143.83
2022-09-29T04:30:33.754Z,-143.83
2022-09-29T04:33:00.729Z,-143.83
2022-09-29T04:35:27.713Z,-143.83
2022-09-29T04:37:59.235Z,-143.83
2022-09-29T04:40:26.723Z,-143.83
2022-09-29T04:42:53.845Z,-143.83
2022-09-29T04:45:20.960Z,-143.83
2022-09-29T04:47:47.896Z,-143.83
2022-09-29T04:50:15.017Z,-143.83
2022-09-29T04:52:43.805Z,-143.83
2022-09-29T04:55:12.154Z,-143.83
2022-09-29T04:57:42.095Z,-143.83
2022-09-29T05:00:11.578Z,-143.83
2022-09-29T05:02:39.220Z,-143.83
2022-09-29T05:05:07.126Z,-143.83
2022-09-29T05:07:40.058Z,-143.83
2022-09-29T05:10:08.898Z,-143.83
2022-09-29T05:12:35.938Z,-143.83
2022-09-29T05:15:04.856Z,-143.83
2022-09-29T05:17:31.893Z,-143.83
2022-09-29T05:19:58.844Z,-143.83
2022-09-29T05:22:26.072Z,-143.83
2022-09-29T05:24:53.469Z,-143.83
2022-09-29T05:27:22.284Z,-143.83
2022-09-29T05:29:50.264Z,-143.83
2022-09-29T05:32:17.641Z,-143.83
2022-09-29T05:34:45.035Z,-143.83
2022-09-29T05:37:12.944Z,-143.83
2022-09-29T05:39:39.947Z,-143.83
2022-09-29T05:42:12.130Z,-143.83
2022-09-29T05:44:39.196Z,-143.83
2022-09-29T05:47:06.345Z,-143.83
2022-09-29T05:49:33.388Z,-143.83
2022-09-29T05:52:00.786Z,-143.83
2022-09-29T05:54:27.823Z,-143.83
2022-09-29T05:56:56.109Z,-143.83
2022-09-29T05:59:23.243Z,-143.83
2022-09-29T06:01:50.489Z,-143.83
2022-09-29T06:04:17.686Z,-143.83
2022-09-29T06:06:44.769Z,-143.83
2022-09-29T06:09:12.040Z,-143.83
2022-09-29T06:11:39.045Z,-143.83
2022-09-29T06:14:06.075Z,-143.83
2022-09-29T06:16:34.450Z,-143.83
2022-09-29T06:19:02.189Z,-143.83
2022-09-29T06:21:30.876Z,-143.83
2022-09-29T06:23:58.933Z,-143.83
2022-09-29T06:26:27.949Z,-143.83
2022-09-29T06:28:57.090Z,-143.83
2022-09-29T06:31:27.801Z,-143.83
2022-09-29T06:34:02.209Z,-143.83
2022-09-29T06:36:54.649Z,-143.83
2022-09-29T06:39:21.811Z,-143.83
2022-09-29T06:41:53.375Z,-143.83
2022-09-29T06:44:26.708Z,-143.83
2022-09-29T06:46:54.929Z,-143.83
2022-09-29T06:49:23.021Z,-143.83
2022-09-29T06:51:50.883Z,-143.83
2022-09-29T06:54:21.602Z,-143.83
2022-09-29T06:56:50.621Z,-143.83
2022-09-29T06:59:18.378Z,-143.83
2022-09-29T07:01:49.651Z,-143.83
2022-09-29T07:04:19.976Z,-143.83
2022-09-29T07:06:47.691Z,-143.83
2022-09-29T07:09:18.230Z,-143.83
2022-09-29T07:11:51.227Z,-143.83
2022-09-29T07:14:22.523Z,-143.83
2022-09-29T07:16:50.162Z,-143.83
2022-09-29T07:19:19.540Z,-143.83
2022-09-29T07:21:48.546Z,-143.83
2022-09-29T07:24:16.248Z,-143.83
2022-09-29T07:26:43.939Z,-143.83
2022-09-29T07:29:15.269Z,-143.83
2022-09-29T07:31:51.602Z,-143.83
2022-09-29T07:34:21.719Z,-143.83
2022-09-29T07:36:49.584Z,-143.83
2022-09-29T07:39:17.113Z,-143.83
2022-09-29T07:41:44.037Z,-143.83
2022-09-29T07:44:12.383Z,-143.83
2022-09-29T07:46:39.418Z,-143.83
2022-09-29T07:49:06.661Z,-143.83
2022-09-29T07:51:33.605Z,-143.83
2022-09-29T07:54:05.393Z,-143.83
2022-09-29T07:56:33.150Z,-143.83
2022-09-29T07:59:02.325Z,-143.83
2022-09-29T08:01:30.089Z,-143.83
2022-09-29T08:03:57.734Z,-143.83
2022-09-29T08:06:27.321Z,-143.83
2022-09-29T08:09:03.290Z,-143.83
2022-09-29T08:11:36.684Z,-143.83
2022-09-29T08:14:04.112Z,-143.83
2022-09-29T08:16:32.525Z,-143.83
2022-09-29T08:19:00.941Z,-143.83
2022-09-29T08:21:31.502Z,-143.83
2022-09-29T08:23:58.712Z,-143.83
2022-09-29T08:26:38.935Z,-143.83
2022-09-29T08:29:10.316Z,-143.83
2022-09-29T08:31:39.631Z,-143.83
2022-09-29T08:34:07.721Z,-143.83
2022-09-29T08:36:36.007Z,-143.83
2022-09-29T08:39:03.800Z,-143.83
2022-09-29T08:42:07.729Z,-143.83
2022-09-29T08:44:51.724Z,-143.83
2022-09-29T08:47:33.392Z,-143.83
2022-09-29T08:50:16.645Z,-143.83
2022-09-29T08:52:53.036Z,-143.83
2022-09-29T08:55:35.933Z,-143.83
2022-09-29T08:58:03.128Z,-143.83
2022-09-29T09:00:52.653Z,-143.83
2022-09-29T09:03:40.378Z,-143.83
2022-09-29T09:06:40.185Z,-143.83
2022-09-29T09:09:33.858Z,-143.83
2022-09-29T09:12:46.680Z,16.51
2022-09-29T09:15:45.453Z,17.35
2022-09-29T09:21:54.074Z,16.51
2022-09-29T09:24:27.614Z,17.05
2022-09-29T09:26:56.524Z,18.03
2022-09-29T09:29:46.040Z,18.70
2022-09-29T09:32:28.485Z,19.49
2022-09-29T09:35:26.462Z,20.40
2022-09-29T09:37:59.571Z,20.94
2022-09-29T09:40:43.547Z,21.32
2022-09-29T09:43:24.937Z,21.94
2022-09-29T09:46:11.545Z,21.93
2022-09-29T09:49:17.503Z,22.29
2022-09-29T09:51:50.631Z,20.99
2022-09-29T09:54:33.304Z,21.61
2022-09-29T09:57:00.799Z,22.04
2022-09-29T09:59:31.263Z,22.49
2022-09-29T10:01:59.332Z,22.94
2022-09-29T10:04:26.409Z,22.90
2022-09-29T10:06:55.109Z,23.77
2022-09-29T10:09:23.234Z,24.52
2022-09-29T10:11:50.917Z,24.53
2022-09-29T10:14:28.987Z,24.35
2022-09-29T10:17:12.369Z,24.03
2022-09-29T10:20:01.986Z,23.14
2022-09-29T10:22:30.759Z,21.85
2022-09-29T10:25:19.864Z,20.29
2022-09-29T10:27:55.710Z,19.06
2022-09-29T10:30:32.530Z,17.79
2022-09-29T10:33:04.297Z,16.66
2022-09-29T10:35:39.148Z,16.30
2022-09-29T10:38:27.202Z,16.11
2022-09-29T10:40:58.733Z,16.70
2022-09-29T10:43:36.939Z,18.40
2022-09-29T10:46:06.243Z,19.97
2022-09-29T10:48:33.496Z,21.04
2022-09-29T10:51:05.913Z,21.78
2022-09-29T10:53:38.710Z,22.37
2022-09-29T10:56:22.423Z,22.87
2022-09-29T10:59:05.737Z,22.99
2022-09-29T11:01:43.044Z,23.26
2022-09-29T11:04:28.118Z,21.38
2022-09-29T11:06:55.844Z,20.44
2022-09-29T11:09:27.133Z,19.83
2022-09-29T11:12:00.968Z,20.49
2022-09-29T11:14:42.278Z,20.64
2022-09-29T11:17:30.067Z,19.24
2022-09-29T11:20:04.713Z,18.29
2022-09-29T11:22:53.865Z,17.80
2022-09-29T11:25:39.811Z,17.02
2022-09-29T11:28:35.243Z,16.44
2022-09-29T11:31:23.624Z,16.57
2022-09-29T11:34:20.688Z,16.60
2022-09-29T11:37:09.865Z,16.41
2022-09-29T11:40:01.812Z,16.29
2022-09-29T11:42:38.655Z,16.49
2022-09-29T11:45:15.183Z,16.61
2022-09-29T11:47:59.827Z,16.21
2022-09-29T11:50:30.441Z,15.78
2022-09-29T11:53:42.502Z,15.99
2022-09-29T11:56:22.849Z,15.85
2022-09-29T11:59:36.776Z,15.72
2022-09-29T12:02:25.203Z,15.66
2022-09-29T12:05:07.451Z,15.53
2022-09-29T12:07:37.875Z,15.54
2022-09-29T12:10:30.022Z,15.55
2022-09-29T12:13:03.627Z,15.67
2022-09-29T12:15:49.593Z,15.81
2022-09-29T12:19:00.075Z,15.90
2022-09-29T12:21:55.620Z,15.94
2022-09-29T12:24:43.333Z,16.07
2022-09-29T12:27:36.522Z,16.30
2022-09-29T12:30:07.133Z,16.29
2022-09-29T12:32:36.784Z,15.74
2022-09-29T12:35:23.898Z,15.70
2022-09-29T12:38:15.477Z,15.16
2022-09-29T12:40:49.907Z,15.13
2022-09-29T12:43:43.900Z,14.91
2022-09-29T12:46:37.006Z,14.97
2022-09-29T12:49:17.700Z,15.04
2022-09-29T12:51:50.550Z,15.18
2022-09-29T12:54:39.955Z,15.23
2022-09-29T12:57:16.331Z,15.03
2022-09-29T12:59:57.720Z,15.07
2022-09-29T13:02:43.717Z,15.12
2022-09-29T13:05:23.022Z,15.17
2022-09-29T13:08:04.574Z,15.24
2022-09-29T13:10:58.388Z,15.08
2022-09-29T13:14:03.878Z,14.87
2022-09-29T13:16:56.599Z,15.05
2022-09-29T13:19:57.730Z,15.17
2022-09-29T13:23:17.321Z,15.22
2022-09-29T13:26:22.638Z,15.29
2022-09-29T13:28:54.333Z,15.24
2022-09-29T13:31:32.605Z,15.28
2022-09-29T13:34:03.277Z,15.26
2022-09-29T13:36:44.044Z,14.87
2022-09-29T13:39:23.629Z,14.80
2022-09-29T13:41:55.860Z,14.87
2022-09-29T13:44:25.225Z,14.98
2022-09-29T13:46:55.124Z,15.12
2022-09-29T13:49:22.500Z,15.20
2022-09-29T13:51:52.770Z,15.36
2022-09-29T13:54:28.015Z,15.41
2022-09-29T13:57:04.284Z,15.46
2022-09-29T13:59:32.311Z,15.50
2022-09-29T14:02:00.356Z,15.69
2022-09-29T14:04:46.183Z,15.81
2022-09-29T14:07:35.218Z,16.07
2022-09-29T14:10:25.466Z,16.11
2022-09-29T14:13:06.845Z,16.14
2022-09-29T14:15:49.890Z,16.23
2022-09-29T14:18:57.918Z,16.03
2022-09-29T14:21:45.470Z,15.89
2022-09-29T14:24:37.748Z,15.75
2022-09-29T14:27:27.838Z,15.61
2022-09-29T14:30:13.609Z,15.56
2022-09-29T14:33:19.408Z,15.69
2022-09-29T14:36:20.732Z,15.70
2022-09-29T14:39:21.461Z,15.72
2022-09-29T14:41:45.715Z,15.64
2022-09-29T14:44:19.781Z,15.41
2022-09-29T14:47:12.696Z,15.18
2022-09-29T14:50:28.003Z,14.99
2022-09-29T14:53:17.484Z,14.89
2022-09-29T14:55:54.622Z,14.83
2022-09-29T14:59:00.927Z,14.73
2022-09-29T15:01:30.526Z,14.70
2022-09-29T15:04:11.460Z,14.62
2022-09-29T15:06:51.641Z,14.60
2022-09-29T15:09:25.581Z,14.66
2022-09-29T15:12:04.459Z,14.65
2022-09-29T15:14:39.491Z,14.62
2022-09-29T15:17:22.999Z,14.62
2022-09-29T15:20:14.030Z,14.65
2022-09-29T15:23:02.559Z,14.53
2022-09-29T15:25:34.905Z,14.48
2022-09-29T15:28:42.372Z,14.38
2022-09-29T15:31:16.552Z,14.36
2022-09-29T15:33:45.439Z,14.25
2022-09-29T15:36:22.208Z,14.17
2022-09-29T15:38:55.174Z,14.10
2022-09-29T15:41:27.579Z,14.04
2022-09-29T15:44:03.239Z,13.99
2022-09-29T15:46:36.598Z,13.94
2022-09-29T15:49:10.415Z,13.89
2022-09-29T15:51:39.008Z,13.83
2022-09-29T15:54:10.720Z,13.85
2022-09-29T15:56:57.459Z,13.79
2022-09-29T15:59:54.739Z,13.70
2022-09-29T16:02:42.091Z,13.47
2022-09-29T16:05:17.926Z,13.72
2022-09-29T16:08:04.017Z,13.61
2022-09-29T16:10:34.936Z,13.53
2022-09-29T16:13:08.778Z,13.50
2022-09-29T16:15:46.908Z,13.48
2022-09-29T16:18:23.794Z,13.44
2022-09-29T16:20:54.327Z,13.40
2022-09-29T16:23:35.146Z,13.34
2022-09-29T16:26:08.533Z,13.27
2022-09-29T16:28:38.863Z,13.21
2022-09-29T16:31:17.973Z,13.14
2022-09-29T16:33:54.203Z,13.10
2022-09-29T16:36:28.997Z,13.03
2022-09-29T16:38:56.447Z,12.95
2022-09-29T16:41:37.963Z,12.93
2022-09-29T16:44:30.971Z,12.87
2022-09-29T16:47:17.703Z,12.80
2022-09-29T16:49:51.252Z,12.79
2022-09-29T16:52:28.471Z,12.73
2022-09-29T16:55:16.990Z,12.69
2022-09-29T16:58:13.556Z,12.58
2022-09-29T17:00:41.408Z,12.59
2022-09-29T17:03:10.376Z,12.53
2022-09-29T17:05:47.497Z,12.48
2022-09-29T17:08:27.619Z,12.42
2022-09-29T17:10:57.035Z,12.36
2022-09-29T17:13:28.592Z,12.31
2022-09-29T17:15:56.182Z,12.24
2022-09-29T17:18:25.188Z,12.20
2022-09-29T17:20:52.772Z,12.13
2022-09-29T17:23:20.146Z,12.07
2022-09-29T17:25:48.241Z,11.97
2022-09-29T17:28:25.720Z,11.94
2022-09-29T17:30:55.604Z,11.89
2022-09-29T17:33:23.630Z,11.80
2022-09-29T17:35:55.812Z,11.75
2022-09-29T17:38:24.073Z,11.69
2022-09-29T17:41:03.669Z,11.60
2022-09-29T17:43:31.741Z,11.53
2022-09-29T17:46:00.278Z,11.50
2022-09-29T17:48:29.383Z,11.49
2022-09-29T17:50:59.146Z,11.47
2022-09-29T17:53:27.105Z,11.45
2022-09-29T17:55:57.148Z,11.43
2022-09-29T17:58:24.819Z,11.40
2022-09-29T18:00:54.219Z,11.40
2022-09-29T18:03:22.326Z,11.44
2022-09-29T18:05:59.727Z,11.44
2022-09-29T18:08:29.605Z,11.47
2022-09-29T18:11:01.917Z,11.50
2022-09-29T18:13:33.895Z,11.55
2022-09-29T18:16:02.183Z,11.54
2022-09-29T18:18:32.158Z,11.55
2022-09-29T18:21:01.196Z,11.61
2022-09-29T18:23:28.723Z,11.64
2022-09-29T18:25:56.191Z,11.65
2022-09-29T18:28:23.647Z,11.64
2022-09-29T18:31:08.738Z,11.61
2022-09-29T18:33:39.030Z,11.57
2022-09-29T18:36:06.485Z,11.58
2022-09-29T18:38:34.355Z,11.62
2022-09-29T18:41:02.100Z,11.59
2022-09-29T18:43:29.511Z,11.62
2022-09-29T18:45:58.133Z,11.68
2022-09-29T18:48:25.814Z,11.69
2022-09-29T18:50:56.715Z,11.69
2022-09-29T18:53:25.190Z,11.61
2022-09-29T18:55:58.982Z,11.48
2022-09-29T18:58:26.536Z,11.45
2022-09-29T19:00:55.548Z,11.43
2022-09-29T19:03:25.392Z,11.40
2022-09-29T19:05:54.129Z,11.44
2022-09-29T19:08:22.289Z,11.44
2022-09-29T19:10:58.431Z,11.44
2022-09-29T19:13:26.519Z,11.44
2022-09-29T19:15:57.733Z,11.42
2022-09-29T19:18:27.262Z,11.38
2022-09-29T19:20:57.314Z,11.39
2022-09-29T19:23:26.972Z,11.41
2022-09-29T19:25:58.284Z,11.40
2022-09-29T19:28:27.252Z,11.41
2022-09-29T19:30:55.944Z,11.41
2022-09-29T19:33:23.905Z,11.39
2022-09-29T19:35:54.934Z,11.35
2022-09-29T19:38:23.210Z,11.35
2022-09-29T19:40:51.736Z,11.33
2022-09-29T19:43:21.495Z,11.32
2022-09-29T19:45:50.109Z,11.29
2022-09-29T19:48:20.454Z,11.24
2022-09-29T19:51:07.361Z,11.24
2022-09-29T19:53:35.899Z,10.77
2022-09-29T19:56:09.172Z,11.22
2022-09-29T19:58:38.850Z,11.19
2022-09-29T20:01:11.526Z,11.17
2022-09-29T20:03:39.367Z,11.18
2022-09-29T20:06:07.053Z,11.16
2022-09-29T20:08:35.090Z,11.16
2022-09-29T20:11:10.978Z,11.13
2022-09-29T20:13:39.223Z,11.12
2022-09-29T20:16:07.642Z,11.05
2022-09-29T20:18:37.458Z,11.02
2022-09-29T20:21:12.839Z,10.97
2022-09-29T20:23:40.800Z,10.97
2022-09-29T20:26:08.995Z,10.94
2022-09-29T20:28:38.182Z,10.88
2022-09-29T20:31:07.542Z,10.84
2022-09-29T20:33:36.500Z,10.83
2022-09-29T20:36:05.435Z,10.81
2022-09-29T20:38:39.349Z,10.81
2022-09-29T20:41:07.847Z,10.80
2022-09-29T20:43:35.693Z,10.75
2022-09-29T20:46:06.266Z,10.71
2022-09-29T20:48:39.064Z,10.66
2022-09-29T20:51:16.085Z,10.61
2022-09-29T20:53:59.691Z,10.56
2022-09-29T20:56:31.244Z,10.51
2022-09-29T20:59:00.155Z,10.36
2022-09-29T21:01:30.258Z,10.28
2022-09-29T21:04:06.775Z,10.26
2022-09-29T21:06:42.897Z,10.20
2022-09-29T21:09:16.069Z,10.17
2022-09-29T21:11:44.542Z,10.20
2022-09-29T21:14:16.323Z,10.19
2022-09-29T21:16:45.218Z,10.20
2022-09-29T21:19:14.466Z,10.17
2022-09-29T21:21:43.909Z,10.14
2022-09-29T21:24:14.487Z,10.12
2022-09-29T21:26:42.266Z,10.08
2022-09-29T21:29:16.605Z,10.00
2022-09-29T21:31:45.364Z,9.93
2022-09-29T21:34:16.733Z,9.93
2022-09-29T21:36:44.298Z,9.88
2022-09-29T21:39:14.327Z,9.87
2022-09-29T21:41:43.770Z,9.85
2022-09-29T21:44:16.965Z,9.77
2022-09-29T21:46:45.316Z,9.73
2022-09-29T21:49:14.624Z,9.62
2022-09-29T21:51:44.802Z,9.58
2022-09-29T21:54:15.255Z,9.50
2022-09-29T21:56:44.583Z,9.49
2022-09-29T21:59:15.486Z,9.45
2022-09-29T22:01:43.956Z,9.38
2022-09-29T22:04:12.278Z,9.35
2022-09-29T22:06:40.676Z,9.35
2022-09-29T22:09:09.290Z,9.28
2022-09-29T22:11:42.144Z,9.20
2022-09-29T22:14:12.826Z,9.14
2022-09-29T22:16:40.686Z,9.15
2022-09-29T22:19:32.838Z,9.19
2022-09-29T22:21:56.342Z,9.15
2022-09-29T22:24:24.570Z,9.12
2022-09-29T22:26:52.177Z,9.09
2022-09-29T22:29:20.337Z,9.12
2022-09-29T22:31:48.152Z,9.14
2022-09-29T22:34:15.952Z,9.17
2022-09-29T22:36:43.325Z,9.18
2022-09-29T22:39:11.128Z,9.20
2022-09-29T22:41:40.215Z,9.12
2022-09-29T22:44:08.106Z,9.14
2022-09-29T22:46:36.092Z,9.11
2022-09-29T22:49:04.061Z,9.07
2022-09-29T22:51:31.482Z,9.05
2022-09-29T22:53:59.920Z,9.06
2022-09-29T22:56:30.127Z,9.09
2022-09-29T22:59:03.600Z,9.11
2022-09-29T23:01:33.198Z,9.12
2022-09-29T23:04:00.956Z,9.07
2022-09-29T23:06:28.376Z,9.05
2022-09-29T23:08:55.768Z,9.03
2022-09-29T23:11:23.449Z,9.00
2022-09-29T23:13:52.942Z,8.99
2022-09-29T23:16:20.625Z,8.97
2022-09-29T23:18:53.820Z,9.01
2022-09-29T23:21:22.540Z,9.01
2022-09-29T23:23:59.389Z,8.96
2022-09-29T23:26:28.360Z,8.89
2022-09-29T23:28:56.343Z,8.83
2022-09-29T23:31:24.370Z,8.83
2022-09-29T23:34:01.501Z,8.85
2022-09-29T23:36:31.269Z,8.83
2022-09-29T23:39:10.962Z,8.84
2022-09-29T23:41:39.852Z,8.84
2022-09-29T23:44:07.931Z,8.84
2022-09-29T23:46:37.808Z,8.85
2022-09-29T23:49:13.134Z,8.84
2022-09-29T23:51:45.854Z,8.82
2022-09-29T23:54:18.433Z,8.83
2022-09-29T23:56:47.469Z,8.84
2022-09-29T23:59:15.962Z,8.83
